createdAt,value
2023-09-27T00:02:14.805Z,98735.19
2023-09-27T00:04:41.933Z,98736.13
2023-09-27T00:07:08.850Z,98739.66
2023-09-27T00:09:36.252Z,98739.91
2023-09-27T00:12:07.001Z,98752.06
2023-09-27T00:14:34.040Z,98746.97
2023-09-27T00:17:01.013Z,98745.34
2023-09-27T00:19:28.014Z,98743.44
2023-09-27T00:21:54.917Z,98737.25
2023-09-27T00:24:21.850Z,98748.72
2023-09-27T00:26:48.843Z,98743.19
2023-09-27T00:29:15.772Z,98744.56
2023-09-27T00:31:42.744Z,98744.28
2023-09-27T00:34:09.644Z,98742.47
2023-09-27T00:36:36.579Z,98741.34
2023-09-27T00:39:03.550Z,98740.69
2023-09-27T00:41:31.066Z,98740.81
2023-09-27T00:43:58.082Z,98732.75
2023-09-27T00:46:25.111Z,98739.72
2023-09-27T00:48:53.180Z,98734.47
2023-09-27T00:51:20.280Z,98731.09
2023-09-27T00:53:48.715Z,98734.25
2023-09-27T00:56:15.681Z,98735.66
2023-09-27T00:58:43.137Z,98730.63
2023-09-27T01:01:10.395Z,98729.03
2023-09-27T01:03:38.070Z,98731.25
2023-09-27T01:06:05.127Z,98730.78
2023-09-27T01:08:32.197Z,98731.75
2023-09-27T01:10:59.320Z,98735.19
2023-09-27T01:13:26.404Z,98735.81
2023-09-27T01:15:53.319Z,98729.72
2023-09-27T01:18:20.345Z,98733.97
2023-09-27T01:20:47.381Z,98717.09
2023-09-27T01:23:14.331Z,98725.78
2023-09-27T01:25:41.271Z,98735.19
2023-09-27T01:28:10.063Z,98730.50
2023-09-27T01:30:37.895Z,98718.09
2023-09-27T01:33:06.945Z,98720.47
2023-09-27T01:35:38.505Z,98724.31
2023-09-27T01:38:06.497Z,98717.72
2023-09-27T01:40:36.324Z,98716.66
2023-09-27T01:43:04.551Z,98712.78
2023-09-27T01:45:32.315Z,98715.75
2023-09-27T01:48:00.551Z,98718.75
2023-09-27T01:50:28.366Z,98713.94
2023-09-27T01:52:56.786Z,98714.81
2023-09-27T01:55:24.826Z,98716.62
2023-09-27T01:57:52.102Z,98708.31
2023-09-27T02:00:20.650Z,98718.78
2023-09-27T02:02:51.770Z,98722.34
2023-09-27T02:05:19.243Z,98710.06
2023-09-27T02:07:46.322Z,98719.84
2023-09-27T02:10:13.417Z,98712.31
2023-09-27T02:12:40.690Z,98714.69
2023-09-27T02:15:09.038Z,98713.37
2023-09-27T02:17:39.123Z,98715.28
2023-09-27T02:20:11.485Z,98722.88
2023-09-27T02:22:39.484Z,98724.06
2023-09-27T02:25:10.625Z,98712.47
2023-09-27T02:27:38.183Z,98714.28
2023-09-27T02:30:07.781Z,98714.59
2023-09-27T02:32:35.472Z,98711.66
2023-09-27T02:35:02.562Z,98710.03
2023-09-27T02:37:29.618Z,98710.50
2023-09-27T02:39:57.503Z,98711.97
2023-09-27T02:42:24.417Z,98710.16
2023-09-27T02:44:51.962Z,98706.03
2023-09-27T02:47:18.950Z,98705.16
2023-09-27T02:49:45.830Z,98708.00
2023-09-27T02:52:12.858Z,98706.94
2023-09-27T02:54:40.481Z,98706.22
2023-09-27T02:57:07.395Z,98708.34
2023-09-27T02:59:34.416Z,98710.03
2023-09-27T03:02:01.492Z,98707.28
2023-09-27T03:04:28.793Z,98699.94
2023-09-27T03:06:56.537Z,98710.09
2023-09-27T03:09:23.490Z,98705.44
2023-09-27T03:11:50.499Z,98706.63
2023-09-27T03:14:17.543Z,98712.22
2023-09-27T03:16:45.186Z,98705.78
2023-09-27T03:19:12.077Z,98713.19
2023-09-27T03:21:39.029Z,98704.44
2023-09-27T03:24:06.693Z,98713.00
2023-09-27T03:26:34.176Z,98708.09
2023-09-27T03:29:01.182Z,98707.94
2023-09-27T03:31:28.201Z,98709.22
2023-09-27T03:33:55.107Z,98707.03
2023-09-27T03:36:22.043Z,98707.47
2023-09-27T03:38:49.005Z,98714.56
2023-09-27T03:41:15.927Z,98717.19
2023-09-27T03:43:43.131Z,98723.38
2023-09-27T03:46:10.076Z,98721.78
2023-09-27T03:48:37.968Z,98723.03
2023-09-27T03:51:05.020Z,98719.91
2023-09-27T03:53:33.229Z,98719.09
2023-09-27T03:56:00.296Z,98722.16
2023-09-27T03:58:27.469Z,98711.13
2023-09-27T04:00:54.391Z,98727.63
2023-09-27T04:03:21.650Z,98727.03
2023-09-27T04:05:48.659Z,98717.59
2023-09-27T04:08:15.629Z,98730.84
2023-09-27T04:10:42.556Z,98723.00
2023-09-27T04:13:09.478Z,98731.22
2023-09-27T04:15:37.032Z,98726.41
2023-09-27T04:18:05.031Z,98726.38
2023-09-27T04:20:34.344Z,98734.56
2023-09-27T04:23:04.907Z,98737.06
2023-09-27T04:25:31.851Z,98735.31
2023-09-27T04:27:58.789Z,98731.56
2023-09-27T04:30:26.051Z,98730.06
2023-09-27T04:32:53.318Z,98737.47
2023-09-27T04:35:21.434Z,98725.03
2023-09-27T04:37:48.611Z,98738.41
2023-09-27T04:40:15.940Z,98735.19
2023-09-27T04:42:44.039Z,98737.09
2023-09-27T04:45:13.216Z,98748.31
2023-09-27T04:47:42.016Z,98744.66
2023-09-27T04:50:12.249Z,98753.06
2023-09-27T04:52:39.939Z,98744.19
2023-09-27T04:55:08.614Z,98754.53
2023-09-27T04:57:36.071Z,98760.16
2023-09-27T05:00:04.732Z,98756.25
2023-09-27T05:02:31.893Z,98766.13
2023-09-27T05:04:58.982Z,98770.50
2023-09-27T05:07:25.973Z,98762.03
2023-09-27T05:09:53.459Z,98761.28
2023-09-27T05:12:20.365Z,98766.00
2023-09-27T05:14:47.303Z,98767.44
2023-09-27T05:17:14.251Z,98773.25
2023-09-27T05:19:46.096Z,98770.72
2023-09-27T05:22:14.079Z,98772.75
2023-09-27T05:24:40.993Z,98765.31
2023-09-27T05:27:08.751Z,98780.72
2023-09-27T05:29:36.043Z,98768.75
2023-09-27T05:32:03.557Z,98775.28
2023-09-27T05:34:31.866Z,98778.97
2023-09-27T05:36:59.211Z,98774.75
2023-09-27T05:39:26.512Z,98769.00
2023-09-27T05:41:56.412Z,98783.34
2023-09-27T05:44:23.642Z,98782.84
2023-09-27T05:46:50.630Z,98790.47
2023-09-27T05:49:18.229Z,98787.59
2023-09-27T05:51:45.154Z,98794.38
2023-09-27T05:54:12.176Z,98799.91
2023-09-27T05:56:39.548Z,98800.62
2023-09-27T05:59:10.233Z,98797.91
2023-09-27T06:01:37.570Z,98803.22
2023-09-27T06:04:05.241Z,98811.13
2023-09-27T06:06:32.187Z,98814.88
2023-09-27T06:08:59.910Z,98809.19
2023-09-27T06:11:27.289Z,98811.63
2023-09-27T06:13:54.194Z,98812.91
2023-09-27T06:16:21.400Z,98815.81
2023-09-27T06:18:48.507Z,98814.75
2023-09-27T06:21:15.426Z,98810.72
2023-09-27T06:23:42.522Z,98811.44
2023-09-27T06:26:10.439Z,98811.44
2023-09-27T06:28:40.621Z,98818.03
2023-09-27T06:31:07.795Z,98816.44
2023-09-27T06:33:43.548Z,98824.66
2023-09-27T06:36:11.650Z,98816.59
2023-09-27T06:38:38.798Z,98817.69
2023-09-27T06:41:05.750Z,98820.16
2023-09-27T06:43:33.007Z,98831.47
2023-09-27T06:46:02.798Z,98827.56
2023-09-27T06:48:30.529Z,98824.56
2023-09-27T06:50:57.675Z,98825.38
2023-09-27T06:53:27.108Z,98831.81
2023-09-27T06:55:56.950Z,98838.50
2023-09-27T06:58:26.561Z,98837.81
2023-09-27T07:00:53.990Z,98844.91
2023-09-27T07:03:26.678Z,98842.91
2023-09-27T07:05:54.064Z,98839.62
2023-09-27T07:08:21.810Z,98834.25
2023-09-27T07:10:48.927Z,98842.84
2023-09-27T07:13:16.380Z,98841.38
2023-09-27T07:15:47.465Z,98852.28
2023-09-27T07:18:14.807Z,98849.50
2023-09-27T07:20:43.364Z,98844.56
2023-09-27T07:23:16.220Z,98847.47
2023-09-27T07:25:46.360Z,98854.75
2023-09-27T07:28:13.959Z,98854.66
2023-09-27T07:30:41.157Z,98860.13
2023-09-27T07:33:11.108Z,98853.81
2023-09-27T07:35:43.536Z,98856.09
2023-09-27T07:38:12.230Z,98860.44
2023-09-27T07:40:39.520Z,98863.06
2023-09-27T07:43:06.721Z,98864.28
2023-09-27T07:45:34.582Z,98857.37
2023-09-27T07:48:02.452Z,98856.25
2023-09-27T07:50:31.393Z,98863.59
2023-09-27T07:53:05.030Z,98866.69
2023-09-27T07:55:35.356Z,98866.00
2023-09-27T07:58:05.165Z,98859.81
2023-09-27T08:00:34.386Z,98864.44
2023-09-27T08:03:02.025Z,98865.16
2023-09-27T08:05:29.291Z,98865.53
2023-09-27T08:07:56.369Z,98861.25
2023-09-27T08:10:23.942Z,98865.37
2023-09-27T08:12:51.135Z,98868.50
2023-09-27T08:15:19.519Z,98870.19
2023-09-27T08:17:49.040Z,98876.19
2023-09-27T08:20:16.556Z,98875.19
2023-09-27T08:22:43.651Z,98877.38
2023-09-27T08:25:18.310Z,98878.81
2023-09-27T08:27:46.018Z,98888.72
2023-09-27T08:30:13.770Z,98882.00
2023-09-27T08:32:42.750Z,98877.16
2023-09-27T08:35:11.098Z,98877.28
2023-09-27T08:37:38.205Z,98876.38
2023-09-27T08:40:06.868Z,98873.87
2023-09-27T08:42:35.193Z,98868.81
2023-09-27T08:45:02.503Z,98869.84
2023-09-27T08:47:31.093Z,98874.28
2023-09-27T08:49:59.654Z,98866.63
2023-09-27T08:52:28.451Z,98874.94
2023-09-27T08:54:55.414Z,98873.47
2023-09-27T08:57:23.931Z,98871.34
2023-09-27T08:59:51.287Z,98873.13
2023-09-27T09:02:18.409Z,98876.91
2023-09-27T09:04:45.330Z,98870.72
2023-09-27T09:07:13.245Z,98875.66
2023-09-27T09:09:41.938Z,98876.50
2023-09-27T09:12:13.256Z,98870.19
2023-09-27T09:14:44.912Z,98868.56
2023-09-27T09:17:12.451Z,98875.03
2023-09-27T09:19:44.814Z,98874.03
2023-09-27T09:22:14.505Z,98873.03
2023-09-27T09:24:43.477Z,98864.56
2023-09-27T09:27:13.650Z,98865.03
2023-09-27T09:29:51.023Z,98864.81
2023-09-27T09:32:21.030Z,98865.50
2023-09-27T09:34:49.691Z,98864.91
2023-09-27T09:37:21.430Z,98868.38
2023-09-27T09:39:50.442Z,98866.44
2023-09-27T09:42:36.017Z,98869.47
2023-09-27T09:45:08.354Z,98861.84
2023-09-27T09:47:38.649Z,98863.13
2023-09-27T09:50:07.811Z,98861.62
2023-09-27T09:52:36.941Z,98854.25
2023-09-27T09:55:22.570Z,98863.94
2023-09-27T09:58:01.006Z,98853.78
2023-09-27T10:00:28.564Z,98855.56
2023-09-27T10:03:04.079Z,98854.03
2023-09-27T10:05:39.561Z,98846.78
2023-09-27T10:08:07.674Z,98855.09
2023-09-27T10:10:36.178Z,98856.13
2023-09-27T10:13:08.379Z,98857.28
2023-09-27T10:15:35.800Z,98859.16
2023-09-27T10:22:07.067Z,98855.53
2023-09-27T10:25:20.727Z,98843.63
2023-09-27T10:28:13.696Z,98835.47
2023-09-27T10:30:43.973Z,98842.19
2023-09-27T10:33:31.836Z,98845.06
2023-09-27T10:36:04.690Z,98844.13
2023-09-27T10:38:43.931Z,98844.56
2023-09-27T10:41:34.061Z,98834.84
2023-09-27T10:44:02.206Z,98842.34
2023-09-27T10:46:50.214Z,98833.97
2023-09-27T10:49:26.467Z,98830.28
2023-09-27T10:52:05.955Z,98831.78
2023-09-27T10:54:36.537Z,98824.97
2023-09-27T10:57:26.596Z,98822.75
2023-09-27T10:59:53.628Z,98818.06
2023-09-27T11:02:33.125Z,98817.94
2023-09-27T11:05:00.116Z,98813.09
2023-09-27T11:07:43.814Z,98818.69
2023-09-27T11:10:11.307Z,98814.41
2023-09-27T11:12:38.564Z,98805.69
2023-09-27T11:15:05.958Z,98796.81
2023-09-27T11:17:33.005Z,98796.22
2023-09-27T11:20:12.328Z,98804.87
2023-09-27T11:22:39.281Z,98793.53
2023-09-27T11:25:26.948Z,98796.66
2023-09-27T11:27:54.036Z,98795.16
2023-09-27T11:30:29.502Z,98782.72
2023-09-27T11:32:56.858Z,98777.91
2023-09-27T11:35:25.766Z,98775.44
2023-09-27T11:38:13.660Z,98777.22
2023-09-27T11:40:44.147Z,98778.06
2023-09-27T11:43:11.717Z,98764.34
2023-09-27T11:45:48.986Z,98766.87
2023-09-27T11:48:17.276Z,98760.09
2023-09-27T11:50:44.391Z,98767.53
2023-09-27T11:53:12.352Z,98759.69
2023-09-27T11:55:39.570Z,98760.25
2023-09-27T11:58:06.512Z,98760.09
2023-09-27T12:00:33.663Z,98753.34
2023-09-27T12:03:00.699Z,98758.09
2023-09-27T12:05:28.186Z,98749.97
2023-09-27T12:07:56.583Z,98751.75
2023-09-27T12:10:23.771Z,98749.03
2023-09-27T12:12:50.794Z,98755.78
2023-09-27T12:15:17.810Z,98755.75
2023-09-27T12:17:45.130Z,98750.44
2023-09-27T12:20:26.624Z,98747.34
2023-09-27T12:22:59.504Z,98745.53
2023-09-27T12:25:28.350Z,98738.03
2023-09-27T12:27:55.389Z,98739.94
2023-09-27T12:30:22.324Z,98734.59
2023-09-27T12:32:49.365Z,98732.09
2023-09-27T12:35:16.524Z,98740.19
2023-09-27T12:37:43.440Z,98734.53
2023-09-27T12:40:10.952Z,98726.44
2023-09-27T12:42:37.847Z,98719.63
2023-09-27T12:45:05.342Z,98720.16
2023-09-27T12:47:33.373Z,98724.94
2023-09-27T12:50:04.969Z,98713.56
2023-09-27T12:52:32.469Z,98710.00
2023-09-27T12:55:47.442Z,98709.88
2023-09-27T12:58:14.990Z,98703.19
2023-09-27T13:00:42.846Z,98700.22
2023-09-27T13:03:10.162Z,98705.47
2023-09-27T13:05:38.386Z,98700.78
2023-09-27T13:08:06.291Z,98696.56
2023-09-27T13:10:33.963Z,98696.81
2023-09-27T13:13:00.890Z,98695.50
2023-09-27T13:15:27.820Z,98685.06
2023-09-27T13:17:55.212Z,98687.38
2023-09-27T13:20:22.349Z,98684.13
2023-09-27T13:22:50.376Z,98687.69
2023-09-27T13:25:18.177Z,98678.59
2023-09-27T13:27:45.560Z,98690.16
2023-09-27T13:30:25.604Z,98677.03
2023-09-27T13:33:00.980Z,98679.94
2023-09-27T13:35:28.064Z,98671.12
2023-09-27T13:37:54.976Z,98669.66
2023-09-27T13:40:21.912Z,98664.34
2023-09-27T13:42:48.830Z,98664.22
2023-09-27T13:45:15.938Z,98657.03
2023-09-27T13:47:43.150Z,98673.72
2023-09-27T13:50:10.677Z,98664.47
2023-09-27T13:52:38.190Z,98662.16
2023-09-27T13:55:05.550Z,98659.44
2023-09-27T13:57:33.155Z,98659.53
2023-09-27T14:00:00.411Z,98655.09
2023-09-27T14:02:27.455Z,98659.69
2023-09-27T14:04:55.146Z,98659.78
2023-09-27T14:07:22.246Z,98656.59
2023-09-27T14:09:49.906Z,98647.34
2023-09-27T14:12:17.052Z,98649.66
2023-09-27T14:14:45.475Z,98648.59
2023-09-27T14:17:13.144Z,98638.97
2023-09-27T14:19:40.792Z,98635.31
2023-09-27T14:22:08.427Z,98637.97
2023-09-27T14:24:36.056Z,98636.53
2023-09-27T14:27:03.593Z,98636.25
2023-09-27T14:29:35.782Z,98628.22
2023-09-27T14:32:07.314Z,98633.69
2023-09-27T14:34:42.751Z,98633.38
2023-09-27T14:37:23.799Z,98631.94
2023-09-27T14:39:50.717Z,98635.75
2023-09-27T14:42:17.621Z,98632.19
2023-09-27T14:44:44.536Z,98627.44
2023-09-27T14:47:11.502Z,98625.75
2023-09-27T14:49:38.716Z,98617.59
2023-09-27T14:52:05.736Z,98624.50
2023-09-27T14:54:32.590Z,98615.09
2023-09-27T14:57:00.225Z,98614.50
2023-09-27T14:59:27.221Z,98621.69
2023-09-27T15:01:59.071Z,98615.97
2023-09-27T15:04:26.797Z,98611.38
2023-09-27T15:06:54.316Z,98618.97
2023-09-27T15:09:21.418Z,98615.00
2023-09-27T15:11:48.315Z,98617.12
2023-09-27T15:14:15.446Z,98609.25
2023-09-27T15:16:42.500Z,98609.66
2023-09-27T15:19:09.742Z,98608.16
2023-09-27T15:21:37.768Z,98604.53
2023-09-27T15:24:04.805Z,98601.81
2023-09-27T15:26:54.729Z,98612.53
2023-09-27T15:29:21.620Z,98601.44
2023-09-27T15:31:48.611Z,98602.62
2023-09-27T15:34:49.549Z,98598.91
2023-09-27T15:37:35.296Z,98594.44
2023-09-27T15:40:02.182Z,98593.16
2023-09-27T15:42:29.036Z,98595.72
2023-09-27T15:44:58.495Z,98598.59
2023-09-27T15:47:25.565Z,98595.84
2023-09-27T15:49:52.617Z,98588.38
2023-09-27T15:52:19.622Z,98590.22
2023-09-27T15:54:46.497Z,98591.94
2023-09-27T15:57:13.428Z,98591.50
2023-09-27T15:59:40.314Z,98598.97
2023-09-27T16:02:07.382Z,98600.16
2023-09-27T16:04:42.170Z,98607.41
2023-09-27T16:07:16.926Z,98607.63
2023-09-27T16:09:43.856Z,98604.06
2023-09-27T16:12:12.571Z,98602.56
2023-09-27T16:14:39.465Z,98599.94
2023-09-27T16:17:06.436Z,98603.25
2023-09-27T16:19:33.395Z,98605.97
2023-09-27T16:22:00.312Z,98611.78
2023-09-27T16:24:27.897Z,98604.22
2023-09-27T16:26:54.891Z,98604.59
2023-09-27T16:29:21.764Z,98597.78
2023-09-27T16:31:49.535Z,98602.41
2023-09-27T16:34:16.591Z,98599.75
2023-09-27T16:36:45.725Z,98604.72
2023-09-27T16:39:12.916Z,98600.56
2023-09-27T16:41:39.860Z,98603.56
2023-09-27T16:44:08.059Z,98597.03
2023-09-27T16:46:37.249Z,98600.09
2023-09-27T16:49:05.230Z,98596.75
2023-09-27T16:51:32.496Z,98602.00
2023-09-27T16:53:59.456Z,98599.84
2023-09-27T16:56:28.456Z,98604.69
2023-09-27T16:58:55.466Z,98595.09
2023-09-27T17:01:23.048Z,98594.19
2023-09-27T17:03:50.250Z,98602.06
2023-09-27T17:06:19.695Z,98602.84
2023-09-27T17:08:46.648Z,98604.13
2023-09-27T17:11:13.521Z,98609.88
2023-09-27T17:13:40.422Z,98602.03
2023-09-27T17:16:08.614Z,98609.47
2023-09-27T17:18:35.673Z,98613.47
2023-09-27T17:21:02.647Z,98609.31
2023-09-27T17:23:31.916Z,98605.87
2023-09-27T17:25:59.001Z,98603.41
2023-09-27T17:28:31.062Z,98604.19
2023-09-27T17:30:58.076Z,98604.19
2023-09-27T17:33:25.139Z,98597.75
2023-09-27T17:35:52.110Z,98596.38
2023-09-27T17:38:20.221Z,98599.88
2023-09-27T17:40:48.858Z,98606.53
2023-09-27T17:43:16.335Z,98608.69
2023-09-27T17:45:43.668Z,98598.47
2023-09-27T17:48:10.641Z,98602.66
2023-09-27T17:50:37.753Z,98607.19
2023-09-27T17:53:06.005Z,98602.28
2023-09-27T17:55:33.113Z,98598.34
2023-09-27T17:58:00.042Z,98602.88
2023-09-27T18:00:27.508Z,98603.00
2023-09-27T18:02:54.596Z,98607.09
2023-09-27T18:05:21.683Z,98601.22
2023-09-27T18:07:48.634Z,98607.25
2023-09-27T18:10:15.605Z,98602.69
2023-09-27T18:12:42.570Z,98600.00
2023-09-27T18:15:25.249Z,98591.87
2023-09-27T18:17:55.903Z,98591.41
2023-09-27T18:20:23.025Z,98591.69
2023-09-27T18:22:50.090Z,98590.59
2023-09-27T18:25:17.081Z,98588.78
2023-09-27T18:27:44.002Z,98593.34
2023-09-27T18:30:11.395Z,98586.25
2023-09-27T18:32:38.750Z,98591.69
2023-09-27T18:35:06.667Z,98589.84
2023-09-27T18:37:34.323Z,98594.50
2023-09-27T18:40:03.566Z,98595.06
2023-09-27T18:42:30.479Z,98602.22
2023-09-27T18:44:57.383Z,98601.78
2023-09-27T18:47:24.534Z,98604.28
2023-09-27T18:49:52.138Z,98595.91
2023-09-27T18:52:22.471Z,98602.09
2023-09-27T18:54:53.260Z,98599.63
2023-09-27T18:57:22.063Z,98597.13
2023-09-27T18:59:52.469Z,98600.03
2023-09-27T19:02:19.404Z,98604.19
2023-09-27T19:04:46.366Z,98594.62
2023-09-27T19:07:13.266Z,98603.56
2023-09-27T19:09:40.175Z,98600.53
2023-09-27T19:12:07.334Z,98597.31
2023-09-27T19:14:34.528Z,98600.69
2023-09-27T19:17:01.520Z,98594.62
2023-09-27T19:19:28.430Z,98597.81
2023-09-27T19:21:55.322Z,98593.53
2023-09-27T19:24:22.217Z,98597.87
2023-09-27T19:26:53.046Z,98595.88
2023-09-27T19:29:20.035Z,98594.91
2023-09-27T19:31:47.145Z,98600.44
2023-09-27T19:34:16.596Z,98601.13
2023-09-27T19:36:45.461Z,98602.72
2023-09-27T19:39:13.784Z,98608.59
2023-09-27T19:41:45.023Z,98597.87
2023-09-27T19:44:12.303Z,98610.50
2023-09-27T19:46:39.217Z,98612.41
2023-09-27T19:49:06.216Z,98604.31
2023-09-27T19:51:33.189Z,98612.19
2023-09-27T19:54:03.289Z,98609.94
2023-09-27T19:56:30.243Z,98599.47
2023-09-27T19:58:57.290Z,98599.88
2023-09-27T20:01:29.165Z,98600.66
2023-09-27T20:03:56.869Z,98605.16
2023-09-27T20:06:24.528Z,98600.91
2023-09-27T20:08:51.571Z,98598.72
2023-09-27T20:11:18.590Z,98600.53
2023-09-27T20:13:45.513Z,98599.63
2023-09-27T20:16:12.432Z,98601.22
2023-09-27T20:18:39.350Z,98598.44
2023-09-27T20:21:06.521Z,98603.81
2023-09-27T20:23:33.708Z,98591.53
2023-09-27T20:26:03.747Z,98598.31
2023-09-27T20:28:30.675Z,98594.97
2023-09-27T20:30:57.588Z,98602.00
2023-09-27T20:33:25.196Z,98602.91
2023-09-27T20:35:52.906Z,98600.41
2023-09-27T20:38:19.757Z,98592.00
2023-09-27T20:40:46.656Z,98594.75
2023-09-27T20:43:13.578Z,98600.91
2023-09-27T20:45:43.468Z,98596.75
2023-09-27T20:48:10.514Z,98602.34
2023-09-27T20:50:37.608Z,98601.78
2023-09-27T20:53:04.685Z,98601.22
2023-09-27T20:55:32.050Z,98595.84
2023-09-27T20:58:02.671Z,98595.97
2023-09-27T21:00:29.667Z,98595.25
2023-09-27T21:02:57.068Z,98596.09
2023-09-27T21:05:24.016Z,98595.03
2023-09-27T21:07:51.438Z,98591.69
2023-09-27T21:10:18.421Z,98590.22
2023-09-27T21:12:45.290Z,98592.00
2023-09-27T21:15:12.271Z,98593.16
2023-09-27T21:17:39.162Z,98590.44
2023-09-27T21:20:06.639Z,98576.72
2023-09-27T21:22:33.598Z,98586.62
2023-09-27T21:25:00.628Z,98573.69
2023-09-27T21:27:27.521Z,98578.59
2023-09-27T21:29:54.372Z,98570.75
2023-09-27T21:32:22.326Z,98579.03
2023-09-27T21:34:49.622Z,98573.81
2023-09-27T21:37:16.587Z,98573.03
2023-09-27T21:39:43.452Z,98574.13
2023-09-27T21:42:10.326Z,98572.62
2023-09-27T21:44:37.195Z,98569.88
2023-09-27T21:47:05.013Z,98576.53
2023-09-27T21:49:31.924Z,98573.91
2023-09-27T21:51:58.823Z,98576.16
2023-09-27T21:54:25.688Z,98576.03
2023-09-27T21:56:52.582Z,98571.38
2023-09-27T21:59:19.531Z,98572.94
2023-09-27T22:01:46.751Z,98570.88
2023-09-27T22:04:13.640Z,98567.22
2023-09-27T22:06:40.530Z,98567.63
2023-09-27T22:09:07.843Z,98564.62
2023-09-27T22:11:34.674Z,98563.16
2023-09-27T22:14:06.104Z,98564.97
2023-09-27T22:16:34.039Z,98566.00
2023-09-27T22:19:12.109Z,98563.47
2023-09-27T22:21:44.141Z,98560.34
2023-09-27T22:24:14.422Z,98565.78
2023-09-27T22:26:42.831Z,98552.09
2023-09-27T22:29:10.440Z,98566.44
2023-09-27T22:31:40.935Z,98568.63
2023-09-27T22:34:26.517Z,98565.72
2023-09-27T22:36:53.914Z,98565.31
2023-09-27T22:39:21.002Z,98561.37
2023-09-27T22:41:49.868Z,98559.00
2023-09-27T22:44:20.745Z,98558.22
2023-09-27T22:46:51.883Z,98559.22
2023-09-27T22:49:20.196Z,98565.84
2023-09-27T22:51:47.542Z,98563.88
2023-09-27T22:54:19.280Z,98560.91
2023-09-27T22:56:46.976Z,98561.25
2023-09-27T22:59:14.743Z,98553.75
2023-09-27T23:01:44.623Z,98559.28
2023-09-27T23:04:15.553Z,98547.94
2023-09-27T23:07:01.794Z,98554.53
2023-09-27T23:09:35.566Z,98562.94
2023-09-27T23:12:32.890Z,98562.19
2023-09-27T23:15:13.594Z,98559.56
2023-09-27T23:18:09.709Z,98564.88
2023-09-27T23:20:36.654Z,98562.38
2023-09-27T23:23:13.746Z,98549.12
2023-09-27T23:25:46.870Z,98550.63
2023-09-27T23:28:18.802Z,98557.88
2023-09-27T23:30:51.459Z,98559.22
2023-09-27T23:33:19.052Z,98562.78
2023-09-27T23:35:46.344Z,98551.63
2023-09-27T23:38:32.121Z,98554.81
2023-09-27T23:40:59.827Z,98555.69
2023-09-27T23:43:41.261Z,98553.06
2023-09-27T23:46:15.277Z,98557.84
2023-09-27T23:48:43.217Z,98557.69
2023-09-27T23:51:10.124Z,98549.91
2023-09-27T23:53:37.443Z,98548.84
2023-09-27T23:56:07.960Z,98552.63
2023-09-27T23:58:35.776Z,98540.97
